sensor_id;sensor_type;location;lat;lon;timestamp;temperature;humidity
68257;DHT22;55069;51.568;4.656;2022-12-07T00:00:42;4.58;94.94
68257;DHT22;55069;51.568;4.656;2022-12-07T00:03:08;4.58;95.21
68257;DHT22;55069;51.568;4.656;2022-12-07T00:05:33;4.65;95.30
68257;DHT22;55069;51.568;4.656;2022-12-07T00:07:59;4.68;95.40
68257;DHT22;55069;51.568;4.656;2022-12-07T00:10:24;4.72;95.41
68257;DHT22;55069;51.568;4.656;2022-12-07T00:12:49;4.84;95.09
68257;DHT22;55069;51.568;4.656;2022-12-07T00:15:15;4.89;94.88
68257;DHT22;55069;51.568;4.656;2022-12-07T00:17:41;4.96;94.69
68257;DHT22;55069;51.568;4.656;2022-12-07T00:20:07;4.96;94.83
68257;DHT22;55069;51.568;4.656;2022-12-07T00:22:32;4.93;94.92
68257;DHT22;55069;51.568;4.656;2022-12-07T00:24:58;4.95;94.84
68257;DHT22;55069;51.568;4.656;2022-12-07T00:27:23;4.85;94.77
68257;DHT22;55069;51.568;4.656;2022-12-07T00:29:49;4.77;94.83
68257;DHT22;55069;51.568;4.656;2022-12-07T00:32:14;4.69;94.96
68257;DHT22;55069;51.568;4.656;2022-12-07T00:34:40;4.65;94.99
68257;DHT22;55069;51.568;4.656;2022-12-07T00:37:05;4.62;95.22
68257;DHT22;55069;51.568;4.656;2022-12-07T00:39:31;4.68;95.35
68257;DHT22;55069;51.568;4.656;2022-12-07T00:41:56;4.72;95.42
68257;DHT22;55069;51.568;4.656;2022-12-07T00:44:22;4.75;95.48
68257;DHT22;55069;51.568;4.656;2022-12-07T00:46:47;4.79;95.59
68257;DHT22;55069;51.568;4.656;2022-12-07T00:49:13;4.86;95.54
68257;DHT22;55069;51.568;4.656;2022-12-07T00:51:38;4.91;95.49
68257;DHT22;55069;51.568;4.656;2022-12-07T00:54:04;4.91;95.33
68257;DHT22;55069;51.568;4.656;2022-12-07T00:56:29;4.89;95.03
68257;DHT22;55069;51.568;4.656;2022-12-07T00:59:00;4.77;94.96
68257;DHT22;55069;51.568;4.656;2022-12-07T01:01:28;4.69;94.97
68257;DHT22;55069;51.568;4.656;2022-12-07T01:03:54;4.60;95.46
68257;DHT22;55069;51.568;4.656;2022-12-07T01:06:21;4.53;95.52
68257;DHT22;55069;51.568;4.656;2022-12-07T01:08:47;4.41;95.55
68257;DHT22;55069;51.568;4.656;2022-12-07T01:11:15;4.30;95.79
68257;DHT22;55069;51.568;4.656;2022-12-07T01:13:41;4.23;95.86
68257;DHT22;55069;51.568;4.656;2022-12-07T01:16:09;4.17;96.11
68257;DHT22;55069;51.568;4.656;2022-12-07T01:18:35;4.13;96.04
68257;DHT22;55069;51.568;4.656;2022-12-07T01:21:06;4.13;96.33
68257;DHT22;55069;51.568;4.656;2022-12-07T01:23:32;4.19;96.60
68257;DHT22;55069;51.568;4.656;2022-12-07T01:26:00;4.11;96.67
68257;DHT22;55069;51.568;4.656;2022-12-07T01:28:26;4.05;96.61
68257;DHT22;55069;51.568;4.656;2022-12-07T01:31:06;3.96;96.58
68257;DHT22;55069;51.568;4.656;2022-12-07T01:33:35;3.96;96.58
68257;DHT22;55069;51.568;4.656;2022-12-07T01:36:28;3.86;96.60
68257;DHT22;55069;51.568;4.656;2022-12-07T01:39:00;3.78;96.51
68257;DHT22;55069;51.568;4.656;2022-12-07T01:41:29;3.74;96.47
68257;DHT22;55069;51.568;4.656;2022-12-07T01:44:18;3.70;96.38
68257;DHT22;55069;51.568;4.656;2022-12-07T01:46:49;3.70;96.54
68257;DHT22;55069;51.568;4.656;2022-12-07T01:50:02;3.58;96.54
68257;DHT22;55069;51.568;4.656;2022-12-07T01:52:23;3.48;96.41
68257;DHT22;55069;51.568;4.656;2022-12-07T01:54:52;3.40;96.45
68257;DHT22;55069;51.568;4.656;2022-12-07T01:57:19;3.38;96.55
68257;DHT22;55069;51.568;4.656;2022-12-07T01:59:45;3.34;96.53
68257;DHT22;55069;51.568;4.656;2022-12-07T02:02:33;3.34;96.82
68257;DHT22;55069;51.568;4.656;2022-12-07T02:05:01;3.30;96.66
68257;DHT22;55069;51.568;4.656;2022-12-07T02:07:28;3.24;96.63
68257;DHT22;55069;51.568;4.656;2022-12-07T02:09:54;3.17;96.60
68257;DHT22;55069;51.568;4.656;2022-12-07T02:12:20;3.14;96.60
68257;DHT22;55069;51.568;4.656;2022-12-07T02:14:47;3.13;96.60
68257;DHT22;55069;51.568;4.656;2022-12-07T02:25:13;3.22;96.73
68257;DHT22;55069;51.568;4.656;2022-12-07T02:27:59;3.22;96.66
68257;DHT22;55069;51.568;4.656;2022-12-07T02:30:31;3.19;96.69
68257;DHT22;55069;51.568;4.656;2022-12-07T02:35:50;3.07;96.65
68257;DHT22;55069;51.568;4.656;2022-12-07T02:40:55;3.02;96.70
68257;DHT22;55069;51.568;4.656;2022-12-07T02:43:35;3.03;96.73
68257;DHT22;55069;51.568;4.656;2022-12-07T02:46:13;3.07;96.88
68257;DHT22;55069;51.568;4.656;2022-12-07T02:51:46;3.14;97.06
68257;DHT22;55069;51.568;4.656;2022-12-07T02:54:14;3.17;97.05
68257;DHT22;55069;51.568;4.656;2022-12-07T02:56:48;3.31;97.16
68257;DHT22;55069;51.568;4.656;2022-12-07T03:13:48;3.77;97.31
68257;DHT22;55069;51.568;4.656;2022-12-07T03:16:33;3.70;97.22
68257;DHT22;55069;51.568;4.656;2022-12-07T03:19:02;3.54;97.04
68257;DHT22;55069;51.568;4.656;2022-12-07T03:21:38;3.47;96.92
68257;DHT22;55069;51.568;4.656;2022-12-07T03:24:09;3.44;96.86
68257;DHT22;55069;51.568;4.656;2022-12-07T03:26:44;3.37;96.82
68257;DHT22;55069;51.568;4.656;2022-12-07T03:29:25;3.26;96.71
68257;DHT22;55069;51.568;4.656;2022-12-07T03:32:10;3.19;96.67
68257;DHT22;55069;51.568;4.656;2022-12-07T03:34:47;3.12;96.65
68257;DHT22;55069;51.568;4.656;2022-12-07T03:37:19;3.06;96.77
68257;DHT22;55069;51.568;4.656;2022-12-07T03:40:04;3.02;96.75
68257;DHT22;55069;51.568;4.656;2022-12-07T03:42:32;3.00;96.77
68257;DHT22;55069;51.568;4.656;2022-12-07T03:44:58;3.12;96.96
68257;DHT22;55069;51.568;4.656;2022-12-07T03:53:18;3.35;97.13
68257;DHT22;55069;51.568;4.656;2022-12-07T03:55:46;3.30;97.11
68257;DHT22;55069;51.568;4.656;2022-12-07T03:58:16;3.30;97.06
68257;DHT22;55069;51.568;4.656;2022-12-07T04:00:42;3.31;97.12
68257;DHT22;55069;51.568;4.656;2022-12-07T04:03:08;3.34;97.17
68257;DHT22;55069;51.568;4.656;2022-12-07T04:05:34;3.38;97.18
68257;DHT22;55069;51.568;4.656;2022-12-07T04:08:00;3.41;97.08
68257;DHT22;55069;51.568;4.656;2022-12-07T04:10:25;3.44;97.01
68257;DHT22;55069;51.568;4.656;2022-12-07T04:12:51;3.41;96.95
68257;DHT22;55069;51.568;4.656;2022-12-07T04:15:17;3.41;97.00
68257;DHT22;55069;51.568;4.656;2022-12-07T04:17:42;3.34;96.95
68257;DHT22;55069;51.568;4.656;2022-12-07T04:20:08;3.23;96.87
68257;DHT22;55069;51.568;4.656;2022-12-07T04:22:34;3.24;96.86
68257;DHT22;55069;51.568;4.656;2022-12-07T04:24:59;3.19;96.82
68257;DHT22;55069;51.568;4.656;2022-12-07T04:27:25;3.10;96.83
68257;DHT22;55069;51.568;4.656;2022-12-07T04:29:50;2.99;96.75
68257;DHT22;55069;51.568;4.656;2022-12-07T04:32:16;2.95;96.71
68257;DHT22;55069;51.568;4.656;2022-12-07T04:34:41;2.92;96.67
68257;DHT22;55069;51.568;4.656;2022-12-07T04:37:07;2.85;96.62
68257;DHT22;55069;51.568;4.656;2022-12-07T04:39:33;2.82;96.63
68257;DHT22;55069;51.568;4.656;2022-12-07T04:41:59;2.86;96.76
68257;DHT22;55069;51.568;4.656;2022-12-07T04:44:26;2.92;96.88
68257;DHT22;55069;51.568;4.656;2022-12-07T04:46:53;3.03;97.06
68257;DHT22;55069;51.568;4.656;2022-12-07T04:49:19;3.10;97.16
68257;DHT22;55069;51.568;4.656;2022-12-07T04:51:46;3.14;97.22
68257;DHT22;55069;51.568;4.656;2022-12-07T04:54:13;3.13;97.19
68257;DHT22;55069;51.568;4.656;2022-12-07T04:56:40;3.14;97.19
68257;DHT22;55069;51.568;4.656;2022-12-07T04:59:06;3.09;97.13
68257;DHT22;55069;51.568;4.656;2022-12-07T05:01:32;3.04;97.03
68257;DHT22;55069;51.568;4.656;2022-12-07T05:03:57;2.95;96.98
68257;DHT22;55069;51.568;4.656;2022-12-07T05:06:23;2.91;96.89
68257;DHT22;55069;51.568;4.656;2022-12-07T05:08:49;2.81;96.82
68257;DHT22;55069;51.568;4.656;2022-12-07T05:11:15;2.74;96.73
68257;DHT22;55069;51.568;4.656;2022-12-07T05:13:59;2.66;96.75
68257;DHT22;55069;51.568;4.656;2022-12-07T05:16:25;2.58;96.72
68257;DHT22;55069;51.568;4.656;2022-12-07T05:18:51;2.54;96.78
68257;DHT22;55069;51.568;4.656;2022-12-07T05:21:17;2.49;96.77
68257;DHT22;55069;51.568;4.656;2022-12-07T05:23:42;2.45;96.80
68257;DHT22;55069;51.568;4.656;2022-12-07T05:26:08;2.38;96.77
68257;DHT22;55069;51.568;4.656;2022-12-07T05:28:33;2.36;96.80
68257;DHT22;55069;51.568;4.656;2022-12-07T05:30:59;2.34;96.81
68257;DHT22;55069;51.568;4.656;2022-12-07T05:33:24;2.28;96.88
68257;DHT22;55069;51.568;4.656;2022-12-07T05:35:50;2.28;96.91
68257;DHT22;55069;51.568;4.656;2022-12-07T05:38:15;2.27;96.90
68257;DHT22;55069;51.568;4.656;2022-12-07T05:40:41;2.28;96.92
68257;DHT22;55069;51.568;4.656;2022-12-07T05:43:06;2.23;97.00
68257;DHT22;55069;51.568;4.656;2022-12-07T05:45:32;2.18;97.04
68257;DHT22;55069;51.568;4.656;2022-12-07T05:47:57;2.16;97.06
68257;DHT22;55069;51.568;4.656;2022-12-07T05:50:23;2.14;97.03
68257;DHT22;55069;51.568;4.656;2022-12-07T05:52:59;2.09;97.00
68257;DHT22;55069;51.568;4.656;2022-12-07T05:55:24;2.09;96.98
68257;DHT22;55069;51.568;4.656;2022-12-07T05:57:50;2.03;96.94
68257;DHT22;55069;51.568;4.656;2022-12-07T06:00:34;1.97;96.94
68257;DHT22;55069;51.568;4.656;2022-12-07T06:03:00;1.95;96.97
68257;DHT22;55069;51.568;4.656;2022-12-07T06:05:25;1.90;96.95
68257;DHT22;55069;51.568;4.656;2022-12-07T06:07:51;1.87;97.00
68257;DHT22;55069;51.568;4.656;2022-12-07T06:10:16;1.87;97.02
68257;DHT22;55069;51.568;4.656;2022-12-07T06:12:42;1.89;97.08
68257;DHT22;55069;51.568;4.656;2022-12-07T06:15:10;1.86;97.08
68257;DHT22;55069;51.568;4.656;2022-12-07T06:17:38;1.85;97.14
68257;DHT22;55069;51.568;4.656;2022-12-07T06:20:04;1.85;97.10
68257;DHT22;55069;51.568;4.656;2022-12-07T06:22:30;1.85;97.11
68257;DHT22;55069;51.568;4.656;2022-12-07T06:24:55;1.87;97.16
68257;DHT22;55069;51.568;4.656;2022-12-07T06:27:20;1.89;97.20
68257;DHT22;55069;51.568;4.656;2022-12-07T06:29:46;1.97;97.26
68257;DHT22;55069;51.568;4.656;2022-12-07T06:32:11;2.09;97.38
68257;DHT22;55069;51.568;4.656;2022-12-07T06:34:37;2.20;97.52
68257;DHT22;55069;51.568;4.656;2022-12-07T06:37:03;2.28;97.62
68257;DHT22;55069;51.568;4.656;2022-12-07T06:39:29;2.38;97.67
68257;DHT22;55069;51.568;4.656;2022-12-07T06:41:55;2.45;97.70
68257;DHT22;55069;51.568;4.656;2022-12-07T06:44:22;2.58;97.70
68257;DHT22;55069;51.568;4.656;2022-12-07T06:46:48;2.61;97.62
68257;DHT22;55069;51.568;4.656;2022-12-07T06:49:14;2.57;97.54
68257;DHT22;55069;51.568;4.656;2022-12-07T06:51:39;2.51;97.51
68257;DHT22;55069;51.568;4.656;2022-12-07T06:54:09;2.51;97.47
68257;DHT22;55069;51.568;4.656;2022-12-07T06:56:34;2.58;97.50
68257;DHT22;55069;51.568;4.656;2022-12-07T06:59:00;2.59;97.50
68257;DHT22;55069;51.568;4.656;2022-12-07T07:01:25;2.61;97.52
68257;DHT22;55069;51.568;4.656;2022-12-07T07:03:51;2.51;97.39
68257;DHT22;55069;51.568;4.656;2022-12-07T07:06:17;2.47;97.34
68257;DHT22;55069;51.568;4.656;2022-12-07T07:08:43;2.37;97.24
68257;DHT22;55069;51.568;4.656;2022-12-07T07:11:09;2.28;97.17
68257;DHT22;55069;51.568;4.656;2022-12-07T07:13:34;2.23;97.11
68257;DHT22;55069;51.568;4.656;2022-12-07T07:16:00;2.17;97.06
68257;DHT22;55069;51.568;4.656;2022-12-07T07:18:26;2.13;97.07
68257;DHT22;55069;51.568;4.656;2022-12-07T07:20:52;2.11;97.10
68257;DHT22;55069;51.568;4.656;2022-12-07T07:23:18;2.07;97.10
68257;DHT22;55069;51.568;4.656;2022-12-07T07:25:44;2.03;97.13
68257;DHT22;55069;51.568;4.656;2022-12-07T07:28:10;2.00;97.13
68257;DHT22;55069;51.568;4.656;2022-12-07T07:30:36;1.93;97.17
68257;DHT22;55069;51.568;4.656;2022-12-07T07:33:03;1.95;97.13
68257;DHT22;55069;51.568;4.656;2022-12-07T07:35:30;1.92;97.16
68257;DHT22;55069;51.568;4.656;2022-12-07T07:37:56;1.90;97.18
68257;DHT22;55069;51.568;4.656;2022-12-07T07:40:22;1.92;97.19
68257;DHT22;55069;51.568;4.656;2022-12-07T07:42:49;1.93;97.20
68257;DHT22;55069;51.568;4.656;2022-12-07T07:45:15;1.90;97.21
68257;DHT22;55069;51.568;4.656;2022-12-07T07:47:40;1.87;97.20
68257;DHT22;55069;51.568;4.656;2022-12-07T07:50:06;1.87;97.18
68257;DHT22;55069;51.568;4.656;2022-12-07T07:52:32;1.86;97.17
68257;DHT22;55069;51.568;4.656;2022-12-07T07:54:57;1.92;97.27
68257;DHT22;55069;51.568;4.656;2022-12-07T07:57:23;1.93;97.30
68257;DHT22;55069;51.568;4.656;2022-12-07T07:59:49;1.93;97.30
68257;DHT22;55069;51.568;4.656;2022-12-07T08:02:16;1.96;97.40
68257;DHT22;55069;51.568;4.656;2022-12-07T08:04:42;1.99;97.42
68257;DHT22;55069;51.568;4.656;2022-12-07T08:07:08;1.97;97.40
68257;DHT22;55069;51.568;4.656;2022-12-07T08:09:34;2.00;97.35
68257;DHT22;55069;51.568;4.656;2022-12-07T08:11:59;2.00;97.40
68257;DHT22;55069;51.568;4.656;2022-12-07T08:14:26;2.02;97.41
68257;DHT22;55069;51.568;4.656;2022-12-07T08:16:52;2.09;97.39
68257;DHT22;55069;51.568;4.656;2022-12-07T08:19:18;2.16;97.41
68257;DHT22;55069;51.568;4.656;2022-12-07T08:21:44;2.21;97.43
68257;DHT22;55069;51.568;4.656;2022-12-07T08:24:09;2.36;97.57
68257;DHT22;55069;51.568;4.656;2022-12-07T08:26:35;2.40;97.54
68257;DHT22;55069;51.568;4.656;2022-12-07T08:29:00;2.41;97.55
68257;DHT22;55069;51.568;4.656;2022-12-07T08:31:26;2.48;97.54
68257;DHT22;55069;51.568;4.656;2022-12-07T08:33:53;2.54;97.51
68257;DHT22;55069;51.568;4.656;2022-12-07T08:36:19;2.62;97.55
68257;DHT22;55069;51.568;4.656;2022-12-07T08:38:44;2.75;97.57
68257;DHT22;55069;51.568;4.656;2022-12-07T08:41:10;2.93;97.57
68257;DHT22;55069;51.568;4.656;2022-12-07T08:43:36;3.00;97.56
68257;DHT22;55069;51.568;4.656;2022-12-07T08:46:11;3.06;97.48
68257;DHT22;55069;51.568;4.656;2022-12-07T08:51:27;3.09;97.23
68257;DHT22;55069;51.568;4.656;2022-12-07T08:53:53;3.10;97.16
68257;DHT22;55069;51.568;4.656;2022-12-07T08:56:20;3.13;97.10
68257;DHT22;55069;51.568;4.656;2022-12-07T08:58:47;3.30;97.11
68257;DHT22;55069;51.568;4.656;2022-12-07T09:01:12;3.51;97.09
68257;DHT22;55069;51.568;4.656;2022-12-07T09:03:38;3.71;97.06
68257;DHT22;55069;51.568;4.656;2022-12-07T09:06:04;3.96;96.76
68257;DHT22;55069;51.568;4.656;2022-12-07T09:08:40;4.16;96.24
68257;DHT22;55069;51.568;4.656;2022-12-07T09:11:07;4.37;95.60
68257;DHT22;55069;51.568;4.656;2022-12-07T09:13:32;4.54;94.85
68257;DHT22;55069;51.568;4.656;2022-12-07T09:15:58;4.65;94.47
68257;DHT22;55069;51.568;4.656;2022-12-07T09:18:23;4.67;94.66
68257;DHT22;55069;51.568;4.656;2022-12-07T09:20:50;4.71;94.62
68257;DHT22;55069;51.568;4.656;2022-12-07T09:23:16;4.74;93.99
68257;DHT22;55069;51.568;4.656;2022-12-07T09:25:41;4.71;94.13
68257;DHT22;55069;51.568;4.656;2022-12-07T09:28:07;4.65;94.22
68257;DHT22;55069;51.568;4.656;2022-12-07T09:30:32;4.61;94.27
68257;DHT22;55069;51.568;4.656;2022-12-07T09:32:58;4.56;94.35
68257;DHT22;55069;51.568;4.656;2022-12-07T09:35:24;4.41;94.38
68257;DHT22;55069;51.568;4.656;2022-12-07T09:37:50;4.36;94.48
68257;DHT22;55069;51.568;4.656;2022-12-07T09:40:17;4.24;94.64
68257;DHT22;55069;51.568;4.656;2022-12-07T09:42:48;4.17;94.90
68257;DHT22;55069;51.568;4.656;2022-12-07T09:45:17;4.07;94.97
68257;DHT22;55069;51.568;4.656;2022-12-07T09:47:44;4.05;95.19
68257;DHT22;55069;51.568;4.656;2022-12-07T09:50:20;4.16;95.44
68257;DHT22;55069;51.568;4.656;2022-12-07T09:52:47;4.27;95.62
68257;DHT22;55069;51.568;4.656;2022-12-07T09:55:22;4.50;95.83
68257;DHT22;55069;51.568;4.656;2022-12-07T09:57:49;4.79;95.65
68257;DHT22;55069;51.568;4.656;2022-12-07T10:00:19;5.09;95.57
68257;DHT22;55069;51.568;4.656;2022-12-07T10:02:51;5.39;94.87
68257;DHT22;55069;51.568;4.656;2022-12-07T10:05:27;5.63;93.80
68257;DHT22;55069;51.568;4.656;2022-12-07T10:07:55;5.74;92.82
68257;DHT22;55069;51.568;4.656;2022-12-07T10:10:24;5.88;91.55
68257;DHT22;55069;51.568;4.656;2022-12-07T10:13:08;5.90;91.29
68257;DHT22;55069;51.568;4.656;2022-12-07T10:15:48;6.02;91.09
68257;DHT22;55069;51.568;4.656;2022-12-07T10:18:25;5.99;90.72
68257;DHT22;55069;51.568;4.656;2022-12-07T10:21:04;5.97;90.51
68257;DHT22;55069;51.568;4.656;2022-12-07T10:23:33;6.01;90.69
68257;DHT22;55069;51.568;4.656;2022-12-07T10:25:59;6.01;90.04
68257;DHT22;55069;51.568;4.656;2022-12-07T10:28:34;6.02;90.44
68257;DHT22;55069;51.568;4.656;2022-12-07T10:31:03;6.05;90.33
68257;DHT22;55069;51.568;4.656;2022-12-07T10:38:49;5.94;89.67
68257;DHT22;55069;51.568;4.656;2022-12-07T10:41:15;5.85;89.36
68257;DHT22;55069;51.568;4.656;2022-12-07T10:43:47;5.84;89.31
68257;DHT22;55069;51.568;4.656;2022-12-07T10:46:37;5.85;89.97
68257;DHT22;55069;51.568;4.656;2022-12-07T10:51:55;5.79;90.40
68257;DHT22;55069;51.568;4.656;2022-12-07T10:57:20;5.71;90.84
68257;DHT22;55069;51.568;4.656;2022-12-07T11:00:01;5.71;91.05
68257;DHT22;55069;51.568;4.656;2022-12-07T11:08:52;5.55;91.27
68257;DHT22;55069;51.568;4.656;2022-12-07T11:22:02;5.22;92.18
68257;DHT22;55069;51.568;4.656;2022-12-07T11:24:32;5.39;91.74
68257;DHT22;55069;51.568;4.656;2022-12-07T11:34:58;5.91;89.21
68257;DHT22;55069;51.568;4.656;2022-12-07T11:37:33;5.91;89.56
68257;DHT22;55069;51.568;4.656;2022-12-07T11:40:03;5.94;89.95
68257;DHT22;55069;51.568;4.656;2022-12-07T11:42:37;6.05;89.43
68257;DHT22;55069;51.568;4.656;2022-12-07T11:45:15;6.19;89.19
68257;DHT22;55069;51.568;4.656;2022-12-07T11:48:09;6.28;88.39
68257;DHT22;55069;51.568;4.656;2022-12-07T11:50:42;6.37;88.17
68257;DHT22;55069;51.568;4.656;2022-12-07T11:53:33;6.36;87.90
68257;DHT22;55069;51.568;4.656;2022-12-07T11:56:08;6.41;87.55
68257;DHT22;55069;51.568;4.656;2022-12-07T11:58:45;6.54;87.65
68257;DHT22;55069;51.568;4.656;2022-12-07T12:01:24;6.70;86.98
68257;DHT22;55069;51.568;4.656;2022-12-07T12:06:43;6.76;87.43
68257;DHT22;55069;51.568;4.656;2022-12-07T12:09:29;6.60;87.22
68257;DHT22;55069;51.568;4.656;2022-12-07T12:12:27;6.56;86.82
68257;DHT22;55069;51.568;4.656;2022-12-07T12:20:29;6.28;87.76
68257;DHT22;55069;51.568;4.656;2022-12-07T12:23:18;6.23;88.80
68257;DHT22;55069;51.568;4.656;2022-12-07T12:25:50;6.20;88.88
68257;DHT22;55069;51.568;4.656;2022-12-07T12:31:15;6.22;88.91
68257;DHT22;55069;51.568;4.656;2022-12-07T12:34:03;6.23;88.39
68257;DHT22;55069;51.568;4.656;2022-12-07T12:55:00;6.56;88.07
68257;DHT22;55069;51.568;4.656;2022-12-07T12:57:29;6.44;87.43
68257;DHT22;55069;51.568;4.656;2022-12-07T13:02:21;6.37;87.88
68257;DHT22;55069;51.568;4.656;2022-12-07T13:07:52;6.56;86.83
68257;DHT22;55069;51.568;4.656;2022-12-07T13:20:55;6.49;86.50
68257;DHT22;55069;51.568;4.656;2022-12-07T13:26:38;6.40;84.00
68257;DHT22;55069;51.568;4.656;2022-12-07T13:31:49;6.25;86.42
68257;DHT22;55069;51.568;4.656;2022-12-07T13:34:41;6.16;86.93
68257;DHT22;55069;51.568;4.656;2022-12-07T13:37:13;6.08;86.99
68257;DHT22;55069;51.568;4.656;2022-12-07T13:39:52;5.92;86.90
68257;DHT22;55069;51.568;4.656;2022-12-07T13:42:26;5.85;87.12
68257;DHT22;55069;51.568;4.656;2022-12-07T13:44:52;5.75;88.32
68257;DHT22;55069;51.568;4.656;2022-12-07T13:47:30;5.71;88.23
68257;DHT22;55069;51.568;4.656;2022-12-07T13:49:57;5.70;88.21
68257;DHT22;55069;51.568;4.656;2022-12-07T13:52:28;5.65;88.50
68257;DHT22;55069;51.568;4.656;2022-12-07T13:57:33;5.65;89.20
68257;DHT22;55069;51.568;4.656;2022-12-07T14:00:02;5.65;89.24
68257;DHT22;55069;51.568;4.656;2022-12-07T14:02:32;5.63;89.77
68257;DHT22;55069;51.568;4.656;2022-12-07T14:05:22;5.65;89.44
68257;DHT22;55069;51.568;4.656;2022-12-07T14:12:49;5.57;88.80
68257;DHT22;55069;51.568;4.656;2022-12-07T14:15:21;5.63;88.70
68257;DHT22;55069;51.568;4.656;2022-12-07T14:17:51;5.67;88.77
68257;DHT22;55069;51.568;4.656;2022-12-07T14:20:37;5.70;88.53
68257;DHT22;55069;51.568;4.656;2022-12-07T14:23:04;5.73;88.90
68257;DHT22;55069;51.568;4.656;2022-12-07T14:25:50;5.77;89.01
68257;DHT22;55069;51.568;4.656;2022-12-07T14:28:29;5.79;88.82
68257;DHT22;55069;51.568;4.656;2022-12-07T14:30:56;5.85;89.31
68257;DHT22;55069;51.568;4.656;2022-12-07T14:33:22;5.91;89.34
68257;DHT22;55069;51.568;4.656;2022-12-07T14:35:49;5.98;89.47
68257;DHT22;55069;51.568;4.656;2022-12-07T14:38:14;5.98;89.56
68257;DHT22;55069;51.568;4.656;2022-12-07T14:40:40;5.94;89.77
68257;DHT22;55069;51.568;4.656;2022-12-07T14:43:14;5.82;89.43
68257;DHT22;55069;51.568;4.656;2022-12-07T14:45:41;5.75;89.35
68257;DHT22;55069;51.568;4.656;2022-12-07T14:48:14;5.71;89.60
68257;DHT22;55069;51.568;4.656;2022-12-07T14:50:44;5.70;89.08
68257;DHT22;55069;51.568;4.656;2022-12-07T14:53:16;5.67;89.17
68257;DHT22;55069;51.568;4.656;2022-12-07T14:55:42;5.60;89.39
68257;DHT22;55069;51.568;4.656;2022-12-07T14:58:15;5.55;89.97
68257;DHT22;55069;51.568;4.656;2022-12-07T15:00:41;5.47;90.71
68257;DHT22;55069;51.568;4.656;2022-12-07T15:03:06;5.44;90.75
68257;DHT22;55069;51.568;4.656;2022-12-07T15:05:33;5.43;91.06
68257;DHT22;55069;51.568;4.656;2022-12-07T15:07:59;5.46;91.14
68257;DHT22;55069;51.568;4.656;2022-12-07T15:10:27;5.50;90.83
68257;DHT22;55069;51.568;4.656;2022-12-07T15:12:56;5.48;91.10
68257;DHT22;55069;51.568;4.656;2022-12-07T15:15:41;5.48;91.16
68257;DHT22;55069;51.568;4.656;2022-12-07T15:18:07;5.47;90.75
68257;DHT22;55069;51.568;4.656;2022-12-07T15:20:33;5.44;90.82
68257;DHT22;55069;51.568;4.656;2022-12-07T15:22:58;5.43;91.04
68257;DHT22;55069;51.568;4.656;2022-12-07T15:25:24;5.42;91.00
68257;DHT22;55069;51.568;4.656;2022-12-07T15:27:49;5.46;90.79
68257;DHT22;55069;51.568;4.656;2022-12-07T15:30:15;5.46;90.70
68257;DHT22;55069;51.568;4.656;2022-12-07T15:32:40;5.44;89.52
68257;DHT22;55069;51.568;4.656;2022-12-07T15:35:06;5.44;88.98
68257;DHT22;55069;51.568;4.656;2022-12-07T15:37:32;5.46;89.07
68257;DHT22;55069;51.568;4.656;2022-12-07T15:39:58;5.37;88.90
68257;DHT22;55069;51.568;4.656;2022-12-07T15:42:24;5.39;89.44
68257;DHT22;55069;51.568;4.656;2022-12-07T15:44:49;5.33;89.49
68257;DHT22;55069;51.568;4.656;2022-12-07T15:47:32;5.34;90.02
68257;DHT22;55069;51.568;4.656;2022-12-07T15:49:58;5.36;90.11
68257;DHT22;55069;51.568;4.656;2022-12-07T15:52:24;5.32;90.11
68257;DHT22;55069;51.568;4.656;2022-12-07T15:54:49;5.30;90.04
68257;DHT22;55069;51.568;4.656;2022-12-07T15:57:15;5.32;90.42
68257;DHT22;55069;51.568;4.656;2022-12-07T15:59:40;5.36;90.68
68257;DHT22;55069;51.568;4.656;2022-12-07T16:02:08;5.33;90.79
68257;DHT22;55069;51.568;4.656;2022-12-07T16:04:35;5.29;91.17
68257;DHT22;55069;51.568;4.656;2022-12-07T16:07:01;5.22;91.30
68257;DHT22;55069;51.568;4.656;2022-12-07T16:09:27;5.16;91.34
68257;DHT22;55069;51.568;4.656;2022-12-07T16:11:52;5.15;91.41
68257;DHT22;55069;51.568;4.656;2022-12-07T16:14:18;5.12;91.56
68257;DHT22;55069;51.568;4.656;2022-12-07T16:16:43;5.11;91.75
68257;DHT22;55069;51.568;4.656;2022-12-07T16:19:09;5.05;91.96
68257;DHT22;55069;51.568;4.656;2022-12-07T16:21:36;4.99;91.94
68257;DHT22;55069;51.568;4.656;2022-12-07T16:24:02;4.96;91.94
68257;DHT22;55069;51.568;4.656;2022-12-07T16:26:28;4.92;92.27
68257;DHT22;55069;51.568;4.656;2022-12-07T16:28:53;4.89;92.35
68257;DHT22;55069;51.568;4.656;2022-12-07T16:31:23;4.85;92.37
68257;DHT22;55069;51.568;4.656;2022-12-07T16:33:50;4.85;92.60
68257;DHT22;55069;51.568;4.656;2022-12-07T16:36:17;4.82;92.77
68257;DHT22;55069;51.568;4.656;2022-12-07T16:38:43;4.84;93.09
68257;DHT22;55069;51.568;4.656;2022-12-07T16:41:10;4.81;93.19
68257;DHT22;55069;51.568;4.656;2022-12-07T16:43:36;4.77;93.32
68257;DHT22;55069;51.568;4.656;2022-12-07T16:46:03;4.79;93.51
68257;DHT22;55069;51.568;4.656;2022-12-07T16:48:28;4.75;93.57
68257;DHT22;55069;51.568;4.656;2022-12-07T16:50:54;4.79;93.72
68257;DHT22;55069;51.568;4.656;2022-12-07T16:53:20;4.85;93.78
68257;DHT22;55069;51.568;4.656;2022-12-07T16:55:46;4.81;93.84
68257;DHT22;55069;51.568;4.656;2022-12-07T16:58:13;4.84;93.84
68257;DHT22;55069;51.568;4.656;2022-12-07T17:00:40;4.86;93.64
68257;DHT22;55069;51.568;4.656;2022-12-07T17:03:06;4.86;93.76
68257;DHT22;55069;51.568;4.656;2022-12-07T17:05:32;4.81;93.42
68257;DHT22;55069;51.568;4.656;2022-12-07T17:07:58;4.81;93.11
68257;DHT22;55069;51.568;4.656;2022-12-07T17:10:25;4.79;92.89
68257;DHT22;55069;51.568;4.656;2022-12-07T17:12:51;4.85;93.01
68257;DHT22;55069;51.568;4.656;2022-12-07T17:15:17;4.86;93.00
68257;DHT22;55069;51.568;4.656;2022-12-07T17:17:44;4.85;93.13
68257;DHT22;55069;51.568;4.656;2022-12-07T17:20:10;4.84;92.93
68257;DHT22;55069;51.568;4.656;2022-12-07T17:22:36;4.82;92.66
68257;DHT22;55069;51.568;4.656;2022-12-07T17:25:02;4.77;92.68
68257;DHT22;55069;51.568;4.656;2022-12-07T17:27:28;4.72;92.66
68257;DHT22;55069;51.568;4.656;2022-12-07T17:29:53;4.71;92.14
68257;DHT22;55069;51.568;4.656;2022-12-07T17:32:19;4.65;91.75
68257;DHT22;55069;51.568;4.656;2022-12-07T17:34:45;4.65;91.72
68257;DHT22;55069;51.568;4.656;2022-12-07T17:37:10;4.62;91.72
68257;DHT22;55069;51.568;4.656;2022-12-07T17:39:36;4.67;92.17
68257;DHT22;55069;51.568;4.656;2022-12-07T17:42:01;4.65;92.48
68257;DHT22;55069;51.568;4.656;2022-12-07T17:44:45;4.68;92.56
68257;DHT22;55069;51.568;4.656;2022-12-07T17:47:11;4.64;92.79
68257;DHT22;55069;51.568;4.656;2022-12-07T17:49:36;4.56;92.75
68257;DHT22;55069;51.568;4.656;2022-12-07T17:52:02;4.48;92.95
68257;DHT22;55069;51.568;4.656;2022-12-07T17:54:46;4.46;93.31
68257;DHT22;55069;51.568;4.656;2022-12-07T17:57:12;4.40;93.00
68257;DHT22;55069;51.568;4.656;2022-12-07T17:59:37;4.36;93.27
68257;DHT22;55069;51.568;4.656;2022-12-07T18:02:03;4.30;93.31
68257;DHT22;55069;51.568;4.656;2022-12-07T18:04:29;4.27;93.49
68257;DHT22;55069;51.568;4.656;2022-12-07T18:06:55;4.26;93.51
68257;DHT22;55069;51.568;4.656;2022-12-07T18:09:20;4.30;93.64